Time;durP1;ratioP1;P1;durP2;ratioP2;P2;SDS_P1;SDS_P2;PMS_P1;PMS_P2;Temp;Humidity;BMP_temperature;BMP_pressure;BME280_temperature;BME280_humidity;BME280_pressure;Samples;Min_cycle;Max_cycle;Signal;HPM_P1;HPM_P2
2022/07/18 00:00:09;;;;;;;3.80;1.10;;;;;;;14.06;92.36;101651.97;5184150;28;20029;-75
2022/07/18 00:02:39;;;;;;;3.15;1.27;;;;;;;14.41;89.39;101651.69;5172110;28;20056;-75
2022/07/18 00:05:10;;;;;;;5.15;1.58;;;;;;;14.38;88.36;101655.25;5178780;28;20066;-75
2022/07/18 00:07:40;;;;;;;3.97;1.42;;;;;;;13.69;93.33;101661.91;5182148;28;20036;-75
2022/07/18 00:10:10;;;;;;;4.88;1.20;;;;;;;13.82;91.75;101650.09;5185217;28;20391;-74
2022/07/18 00:12:41;;;;;;;5.93;1.60;;;;;;;13.65;93.72;101666.41;5189254;28;20480;-75
2022/07/18 00:15:11;;;;;;;3.40;1.30;;;;;;;13.52;94.42;101651.03;5192043;28;20033;-75
2022/07/18 00:17:42;;;;;;;5.22;1.50;;;;;;;13.15;95.76;101655.66;5193044;28;20092;-75
2022/07/18 00:20:12;;;;;;;5.00;1.25;;;;;;;13.04;97.71;101655.13;5207595;28;20026;-74
2022/07/18 00:22:43;;;;;;;3.10;1.25;;;;;;;13.48;94.31;101658.19;5192014;28;20406;-74
2022/07/18 00:25:13;;;;;;;5.63;1.45;;;;;;;13.51;92.34;101657.22;5191347;28;20645;-74
2022/07/18 00:27:44;;;;;;;7.97;1.20;;;;;;;13.47;94.22;101660.84;5192041;28;20473;-74
2022/07/18 00:30:14;;;;;;;4.22;1.40;;;;;;;13.67;93.29;101658.47;5192539;28;20276;-74
2022/07/18 00:32:44;;;;;;;2.47;1.17;;;;;;;13.63;93.16;101672.59;5192169;28;20033;-75
2022/07/18 00:35:15;;;;;;;3.38;1.20;;;;;;;13.70;94.16;101664.50;5191724;28;20507;-75
2022/07/18 00:37:45;;;;;;;2.60;1.20;;;;;;;13.83;92.54;101664.97;5186665;28;20046;-75
2022/07/18 00:40:16;;;;;;;2.67;1.25;;;;;;;13.74;91.17;101660.84;5189288;28;20151;-74
2022/07/18 00:42:46;;;;;;;3.67;1.35;;;;;;;13.36;95.17;101660.28;5193202;28;20274;-74
2022/07/18 00:45:17;;;;;;;5.53;1.25;;;;;;;13.19;96.28;101666.03;5174200;28;20313;-75
2022/07/18 00:47:47;;;;;;;4.05;1.45;;;;;;;12.98;99.24;101663.16;5192770;28;20025;-75
2022/07/18 00:50:19;;;;;;;2.63;1.27;;;;;;;13.13;99.33;101671.47;5190027;28;20108;-75
2022/07/18 00:52:50;;;;;;;3.58;1.30;;;;;;;13.25;96.16;101665.00;5192322;28;20021;-74
2022/07/18 00:55:20;;;;;;;4.60;1.40;;;;;;;13.28;93.91;101654.41;5189798;28;20026;-75
2022/07/18 00:57:53;;;;;;;4.50;1.52;;;;;;;12.93;98.12;101648.44;5192313;28;20438;-75
2022/07/18 01:03:13;;;;;;;4.78;1.30;;;;;;;12.69;100.00;101654.34;5190633;28;20092;-74
2022/07/18 01:05:43;;;;;;;7.93;1.42;;;;;;;12.66;100.00;101650.03;5190913;28;20038;-75
2022/07/18 01:08:14;;;;;;;5.78;1.50;;;;;;;12.57;99.72;101646.78;5189616;28;20032;-75
2022/07/18 01:10:44;;;;;;;4.60;1.65;;;;;;;12.70;98.75;101650.81;5187111;28;20091;-75
2022/07/18 01:13:15;;;;;;;6.22;1.20;;;;;;;12.51;100.00;101662.69;5189728;28;20483;-74
2022/07/18 01:15:45;;;;;;;7.22;1.38;;;;;;;12.66;100.00;101665.75;5190374;28;20542;-75
2022/07/18 01:18:16;;;;;;;9.90;1.38;;;;;;;12.54;99.57;101671.34;5190865;28;20021;-75
2022/07/18 01:20:46;;;;;;;6.00;1.50;;;;;;;12.50;100.00;101671.47;5189453;28;20060;-75
2022/07/18 01:23:17;;;;;;;6.50;1.63;;;;;;;12.91;98.18;101664.22;5193095;28;20030;-75
2022/07/18 01:25:48;;;;;;;4.88;1.50;;;;;;;13.10;95.43;101661.03;5190026;28;20464;-75
2022/07/18 01:28:18;;;;;;;5.28;1.20;;;;;;;13.04;96.47;101665.63;5191292;28;20030;-75
2022/07/18 01:30:49;;;;;;;5.30;1.40;;;;;;;13.26;94.80;101671.97;5188752;28;20030;-75
2022/07/18 01:33:19;;;;;;;5.13;1.38;;;;;;;13.28;93.64;101647.41;5191394;28;20029;-74
2022/07/18 01:35:49;;;;;;;4.72;1.20;;;;;;;12.99;94.54;101646.50;5183996;28;20026;-75
2022/07/18 01:38:20;;;;;;;5.00;1.60;;;;;;;12.87;96.66;101648.59;5189920;28;20060;-75
2022/07/18 01:40:50;;;;;;;3.42;1.52;;;;;;;12.53;99.54;101651.28;5187352;28;20432;-75
2022/07/18 01:43:21;;;;;;;4.75;1.30;;;;;;;12.37;100.00;101647.31;5191082;28;20027;-75
2022/07/18 01:45:53;;;;;;;5.00;1.35;;;;;;;12.17;100.00;101652.22;5189727;28;20030;-74
2022/07/18 01:48:23;;;;;;;6.00;1.60;;;;;;;12.10;100.00;101648.00;5192754;28;20036;-74
2022/07/18 01:50:54;;;;;;;3.80;1.52;;;;;;;12.11;100.00;101659.38;5189352;28;20034;-74
2022/07/18 01:53:25;;;;;;;5.30;1.30;;;;;;;12.33;100.00;101648.28;5188913;28;20025;-74
2022/07/18 01:55:55;;;;;;;6.00;1.38;;;;;;;12.47;99.26;101640.09;5192559;28;20056;-74
2022/07/18 01:58:25;;;;;;;4.95;1.73;;;;;;;12.39;99.17;101648.16;5189343;28;20032;-74
2022/07/18 02:00:56;;;;;;;5.38;1.27;;;;;;;12.12;100.00;101645.38;5192117;28;20021;-74
2022/07/18 02:03:26;;;;;;;8.65;1.50;;;;;;;12.04;100.00;101645.56;5171079;28;20146;-74
2022/07/18 02:05:57;;;;;;;5.57;1.27;;;;;;;12.09;100.00;101642.81;5182448;28;20446;-74
2022/07/18 02:08:27;;;;;;;5.88;1.60;;;;;;;12.16;100.00;101660.94;5188171;28;20091;-75
2022/07/18 02:10:57;;;;;;;4.60;1.50;;;;;;;12.01;100.00;101650.00;5185490;28;20025;-75
2022/07/18 02:13:28;;;;;;;3.53;1.20;;;;;;;12.36;100.00;101648.22;5187850;28;20049;-75
2022/07/18 02:15:58;;;;;;;4.78;1.27;;;;;;;12.70;98.63;101643.81;5191239;28;20025;-75
2022/07/18 02:18:32;;;;;;;3.63;1.38;;;;;;;12.93;97.17;101637.94;5187564;28;20627;-75
2022/07/18 02:21:02;;;;;;;3.13;1.10;;;;;;;12.58;97.16;101638.91;5190320;28;20280;-75
2022/07/18 02:23:34;;;;;;;5.95;1.50;;;;;;;12.50;99.02;101640.84;5189982;28;20506;-75
2022/07/18 02:26:04;;;;;;;5.35;1.27;;;;;;;12.43;100.00;101641.91;5191252;28;20284;-72
2022/07/18 02:28:35;;;;;;;3.75;1.20;;;;;;;12.69;98.74;101631.59;5171575;28;20056;-75
2022/07/18 02:31:06;;;;;;;4.32;1.30;;;;;;;12.47;97.12;101640.09;5206266;28;20030;-75
2022/07/18 02:33:36;;;;;;;4.85;1.48;;;;;;;12.14;100.00;101638.31;5183440;28;20030;-74
2022/07/18 02:36:06;;;;;;;6.05;1.58;;;;;;;12.04;100.00;101642.06;5186578;28;20117;-74
2022/07/18 02:38:37;;;;;;;4.60;1.30;;;;;;;12.08;98.98;101631.47;5188729;28;20029;-75
2022/07/18 02:41:07;;;;;;;5.03;1.38;;;;;;;11.85;100.00;101633.81;5185662;28;20029;-75
2022/07/18 02:43:37;;;;;;;4.30;1.40;;;;;;;11.87;100.00;101634.63;5187258;28;20032;-74
2022/07/18 02:46:08;;;;;;;4.00;1.38;;;;;;;11.84;98.80;101628.59;5188837;28;20050;-74
2022/07/18 02:48:38;;;;;;;6.65;1.45;;;;;;;11.75;100.00;101631.44;5190454;28;20032;-75
2022/07/18 02:51:09;;;;;;;2.35;1.02;;;;;;;12.19;98.04;101628.56;5190476;28;20030;-75
2022/07/18 02:53:39;;;;;;;5.72;1.35;;;;;;;12.36;97.10;101623.75;5188437;28;20025;-74
2022/07/18 02:56:09;;;;;;;5.88;1.50;;;;;;;12.04;97.27;101634.19;5187802;28;20102;-74
2022/07/18 02:58:40;;;;;;;4.88;1.50;;;;;;;11.78;100.00;101634.81;5190199;28;20021;-74
2022/07/18 03:01:11;;;;;;;3.42;1.40;;;;;;;11.62;100.00;101633.44;5188463;28;20037;-75
2022/07/18 03:03:42;;;;;;;4.60;1.42;;;;;;;11.49;100.00;101633.75;5181788;28;20479;-74
2022/07/18 03:06:12;;;;;;;3.08;1.20;;;;;;;11.40;100.00;101632.19;5184995;28;20030;-73
2022/07/18 03:08:43;;;;;;;3.38;1.30;;;;;;;11.26;100.00;101623.78;5187853;28;20188;-75
2022/07/18 03:11:13;;;;;;;5.13;1.55;;;;;;;11.38;100.00;101622.63;5185931;28;20030;-74
2022/07/18 03:13:43;;;;;;;4.60;1.17;;;;;;;11.47;100.00;101632.91;5188079;28;20022;-74
2022/07/18 03:16:14;;;;;;;3.47;1.25;;;;;;;11.83;100.00;101624.25;5188697;28;20064;-75
2022/07/18 03:18:44;;;;;;;4.13;1.30;;;;;;;11.94;98.63;101633.56;5189165;28;20026;-75
2022/07/18 03:21:14;;;;;;;4.50;1.38;;;;;;;11.71;100.00;101622.78;5189467;28;20218;-75
2022/07/18 03:23:45;;;;;;;3.47;1.50;;;;;;;11.45;100.00;101630.31;5187851;28;20109;-75
2022/07/18 03:26:15;;;;;;;6.13;1.23;;;;;;;11.61;100.00;101617.78;5190985;28;20026;-75
2022/07/18 03:28:46;;;;;;;6.63;1.60;;;;;;;11.45;100.00;101624.25;5186986;28;20029;-75
2022/07/18 03:31:16;;;;;;;3.20;1.30;;;;;;;11.73;100.00;101617.50;5189621;28;20017;-75
2022/07/18 03:33:47;;;;;;;4.93;1.67;;;;;;;11.54;100.00;101616.16;5185747;28;20400;-75
2022/07/18 03:36:17;;;;;;;3.88;1.52;;;;;;;11.58;100.00;101618.72;5185626;28;20187;-75
2022/07/18 03:38:47;;;;;;;3.70;1.30;;;;;;;11.64;100.00;101618.56;5188292;28;20034;-75
2022/07/18 03:41:18;;;;;;;4.45;1.60;;;;;;;11.51;100.00;101622.34;5183993;28;20026;-74
2022/07/18 03:43:48;;;;;;;4.20;1.23;;;;;;;11.51;100.00;101622.34;5188008;28;20438;-75
2022/07/18 03:46:19;;;;;;;2.70;1.20;;;;;;;11.48;100.00;101632.88;5191088;28;20049;-75
2022/07/18 03:48:49;;;;;;;3.30;1.30;;;;;;;11.46;100.00;101626.81;5189183;28;20025;-74
2022/07/18 03:51:20;;;;;;;3.95;1.30;;;;;;;11.55;100.00;101623.13;5194867;28;20237;-75
2022/07/18 03:53:50;;;;;;;5.30;1.50;;;;;;;11.88;100.00;101627.59;5190219;28;20032;-75
2022/07/18 03:56:21;;;;;;;5.30;1.20;;;;;;;11.92;100.00;101621.41;5193675;28;20469;-75
2022/07/18 03:58:51;;;;;;;5.10;1.70;;;;;;;11.91;100.00;101620.53;5189574;28;20025;-75
2022/07/18 04:03:54;;;;;;;2.92;1.20;;;;;;;11.96;100.00;101618.66;5163244;28;20060;-72
2022/07/18 04:06:24;;;;;;;3.20;1.45;;;;;;;11.95;100.00;101627.41;5159448;28;20484;-72
2022/07/18 04:08:55;;;;;;;4.38;1.60;;;;;;;11.85;100.00;101622.44;5161168;28;20105;-72
2022/07/18 04:11:25;;;;;;;4.18;1.40;;;;;;;11.89;100.00;101622.34;5168081;28;20026;-72
2022/07/18 04:13:55;;;;;;;4.18;1.30;;;;;;;12.13;100.00;101610.41;5182980;28;20307;-73
2022/07/18 04:16:26;;;;;;;2.90;1.33;;;;;;;11.99;100.00;101613.34;5182918;28;20033;-72
2022/07/18 04:18:57;;;;;;;3.30;1.42;;;;;;;11.92;100.00;101603.09;5180697;28;20018;-72
2022/07/18 04:21:27;;;;;;;2.35;1.15;;;;;;;12.33;100.00;101611.59;5182876;28;20115;-72
2022/07/18 04:23:57;;;;;;;3.92;1.65;;;;;;;12.77;98.49;101611.25;5180960;28;20472;-71
2022/07/18 04:26:28;;;;;;;4.82;1.58;;;;;;;12.94;95.67;101606.44;5180307;28;20050;-73
2022/07/18 04:28:58;;;;;;;4.57;1.45;;;;;;;13.12;95.88;101605.88;5180565;28;20116;-73
2022/07/18 04:31:28;;;;;;;4.22;1.80;;;;;;;13.14;94.86;101609.31;5179510;28;20494;-73
2022/07/18 04:33:59;;;;;;;3.08;1.40;;;;;;;12.93;97.94;101609.94;5179954;28;20572;-73
2022/07/18 04:36:29;;;;;;;5.57;1.63;;;;;;;13.10;97.60;101605.06;5180148;28;20072;-72
2022/07/18 04:38:59;;;;;;;4.22;1.27;;;;;;;13.36;96.08;101606.00;5181356;28;20578;-73
2022/07/18 04:41:30;;;;;;;5.25;1.55;;;;;;;13.10;96.18;101613.78;5182794;28;20029;-73
2022/07/18 04:44:00;;;;;;;2.88;1.42;;;;;;;13.89;96.07;101593.81;5181278;28;20021;-73
2022/07/18 04:46:31;;;;;;;4.13;1.40;;;;;;;15.40;88.75;101597.06;5181916;28;20113;-73
2022/07/18 04:49:01;;;;;;;4.80;1.20;;;;;;;16.30;82.99;101589.81;5161426;28;20412;-74
2022/07/18 04:51:32;;;;;;;4.78;1.10;;;;;;;16.62;81.24;101592.84;5182021;28;20026;-73
2022/07/18 04:54:02;;;;;;;5.68;1.45;;;;;;;17.67;76.17;101596.69;5180918;28;20079;-74
2022/07/18 04:56:33;;;;;;;3.13;1.17;;;;;;;17.71;77.07;101589.47;5180752;28;20084;-73
2022/07/18 04:59:03;;;;;;;4.25;1.20;;;;;;;18.66;75.80;101585.50;5181191;28;20030;-74
2022/07/18 05:01:35;;;;;;;4.75;1.30;;;;;;;19.36;72.73;101571.00;5180547;28;20032;-71
2022/07/18 05:04:05;;;;;;;4.63;1.20;;;;;;;19.89;70.34;101569.66;5181019;28;20049;-71
2022/07/18 05:06:35;;;;;;;2.75;1.05;;;;;;;21.05;65.59;101560.81;5179875;28;20459;-70
2022/07/18 05:09:06;;;;;;;4.43;1.13;;;;;;;22.65;61.34;101560.66;5183801;28;20443;-71
2022/07/18 05:11:36;;;;;;;5.22;1.30;;;;;;;23.57;59.82;101569.00;5183177;28;20415;-71
2022/07/18 05:14:06;;;;;;;3.30;1.00;;;;;;;21.87;64.14;101570.47;5176209;28;20030;-71
2022/07/18 05:16:37;;;;;;;4.10;1.33;;;;;;;23.45;59.61;101569.94;5180272;28;20117;-71
2022/07/18 05:19:07;;;;;;;3.60;1.10;;;;;;;24.42;57.26;101556.25;5180250;28;20120;-72
2022/07/18 05:21:37;;;;;;;3.88;1.23;;;;;;;24.86;56.89;101567.06;5181748;28;20034;-72
2022/07/18 05:24:08;;;;;;;5.95;1.20;;;;;;;25.02;58.33;101562.19;5181722;28;20028;-71
2022/07/18 05:26:38;;;;;;;5.00;1.25;;;;;;;23.72;60.95;101573.22;5179375;28;20030;-71
2022/07/18 05:29:09;;;;;;;2.80;1.08;;;;;;;23.01;60.57;101574.91;5181735;28;20026;-71
2022/07/18 05:31:41;;;;;;;5.25;1.25;;;;;;;21.86;64.83;101579.41;5179648;28;20334;-71
2022/07/18 05:34:11;;;;;;;3.08;1.00;;;;;;;21.74;65.05;101572.25;5181329;28;20103;-72
2022/07/18 05:36:41;;;;;;;4.03;1.30;;;;;;;22.62;63.89;101566.16;5179453;28;20061;-71
2022/07/18 05:39:12;;;;;;;5.03;1.10;;;;;;;24.05;59.71;101564.56;5182730;28;20109;-71
2022/07/18 05:41:42;;;;;;;3.15;1.40;;;;;;;26.17;55.90;101552.56;5199268;28;20025;-71
2022/07/18 05:44:12;;;;;;;5.95;1.17;;;;;;;25.29;56.41;101562.72;5179827;28;20462;-71
2022/07/18 05:46:43;;;;;;;4.50;1.40;;;;;;;25.10;58.06;101562.44;5181477;28;20243;-71
2022/07/18 05:49:14;;;;;;;4.47;1.40;;;;;;;25.47;55.85;101553.19;5180094;28;20030;-71
2022/07/18 05:51:45;;;;;;;11.95;1.75;;;;;;;25.77;54.84;101548.81;5180135;28;20484;-71
2022/07/18 05:54:18;;;;;;;4.28;1.05;;;;;;;24.44;58.87;101549.00;5181395;28;20029;-71
2022/07/18 05:56:51;;;;;;;2.08;1.05;;;;;;;24.32;58.51;101541.91;5180948;28;20030;-71
2022/07/18 05:59:21;;;;;;;7.43;1.20;;;;;;;24.74;58.17;101549.28;5180881;28;20037;-71
2022/07/18 06:01:52;;;;;;;3.38;1.48;;;;;;;23.93;60.26;101552.97;5181103;28;20026;-71
2022/07/18 06:04:22;;;;;;;6.28;1.17;;;;;;;23.22;62.00;101551.19;5179833;28;20403;-71
2022/07/18 06:06:52;;;;;;;3.35;1.23;;;;;;;23.10;62.71;101552.91;5179150;28;20052;-70
2022/07/18 06:09:23;;;;;;;6.88;1.77;;;;;;;23.04;62.12;101544.50;5182170;28;20519;-70
2022/07/18 06:11:53;;;;;;;5.40;1.63;;;;;;;22.36;63.25;101552.91;5182215;28;20221;-71
2022/07/18 06:14:24;;;;;;;2.95;1.13;;;;;;;22.04;63.86;101549.78;5179293;28;20057;-70
2022/07/18 06:16:54;;;;;;;4.53;1.35;;;;;;;22.55;62.84;101550.69;5178944;28;20024;-71
2022/07/18 06:19:25;;;;;;;4.38;1.20;;;;;;;22.44;63.92;101535.47;5166594;28;20730;-71
2022/07/18 06:21:55;;;;;;;5.30;1.17;;;;;;;22.73;62.71;101543.16;5179280;28;20030;-70
2022/07/18 06:24:26;;;;;;;5.15;1.25;;;;;;;22.95;62.10;101540.66;5178953;28;20022;-71
2022/07/18 06:26:56;;;;;;;6.40;1.35;;;;;;;23.01;61.64;101542.06;5178481;28;20026;-71
2022/07/18 06:29:27;;;;;;;8.07;1.50;;;;;;;23.57;61.57;101533.47;5178775;28;20120;-71
2022/07/18 06:31:57;;;;;;;6.75;1.50;;;;;;;22.89;62.73;101538.44;5195306;28;20025;-70
2022/07/18 06:34:28;;;;;;;4.25;1.20;;;;;;;23.91;61.88;101520.16;5180166;28;20022;-71
2022/07/18 06:36:58;;;;;;;4.97;1.33;;;;;;;24.27;61.25;101512.03;5178474;28;20022;-70
2022/07/18 06:39:29;;;;;;;3.60;1.10;;;;;;;24.18;60.17;101523.41;5182881;28;20269;-70
2022/07/18 06:41:59;;;;;;;4.03;1.40;;;;;;;23.93;61.41;101520.94;5182072;28;20033;-71
2022/07/18 06:44:29;;;;;;;3.17;1.00;;;;;;;23.63;61.46;101525.84;5178450;28;20025;-71
2022/07/18 06:47:00;;;;;;;3.58;1.00;;;;;;;23.32;61.81;101523.75;5179929;28;20021;-71
2022/07/18 06:49:30;;;;;;;6.03;1.10;;;;;;;23.07;62.02;101521.13;5178674;28;20060;-71
2022/07/18 06:52:00;;;;;;;2.83;1.10;;;;;;;23.53;61.73;101514.16;5162848;28;20554;-70
2022/07/18 06:54:33;;;;;;;8.55;1.13;;;;;;;23.12;62.26;101511.00;5179007;28;20022;-71
2022/07/18 06:57:06;;;;;;;4.25;1.13;;;;;;;23.41;60.17;101511.53;5178364;28;20032;-70
2022/07/18 06:59:37;;;;;;;5.15;1.20;;;;;;;23.09;61.98;101519.19;5178539;28;20095;-71
2022/07/18 07:02:08;;;;;;;2.65;1.10;;;;;;;23.27;60.06;101517.91;5174226;28;20034;-70
2022/07/18 07:04:38;;;;;;;2.60;1.00;;;;;;;22.82;63.03;101515.00;5160121;28;20061;-70
2022/07/18 07:07:08;;;;;;;3.45;0.95;;;;;;;22.70;64.15;101522.00;5178242;28;20034;-70
2022/07/18 07:09:39;;;;;;;2.53;1.10;;;;;;;22.99;61.99;101519.97;5197792;28;20057;-70
2022/07/18 07:12:10;;;;;;;4.72;1.40;;;;;;;23.26;60.73;101510.84;5182763;28;20479;-71
2022/07/18 07:14:40;;;;;;;3.58;1.30;;;;;;;23.14;61.25;101519.75;5178632;28;20029;-70
2022/07/18 07:17:10;;;;;;;2.72;1.15;;;;;;;23.25;61.64;101513.63;5178059;28;20133;-70
2022/07/18 07:19:41;;;;;;;3.70;1.13;;;;;;;23.55;61.19;101520.22;5178203;28;20029;-70
2022/07/18 07:22:11;;;;;;;4.55;1.23;;;;;;;23.62;62.12;101523.28;5179570;28;20403;-71
2022/07/18 07:24:42;;;;;;;3.92;1.15;;;;;;;23.66;61.15;101512.28;5182526;28;20029;-71
2022/07/18 07:27:12;;;;;;;4.65;1.20;;;;;;;24.26;59.69;101506.78;5182086;28;20033;-70
2022/07/18 07:29:43;;;;;;;4.00;1.00;;;;;;;24.09;60.13;101496.56;5182455;28;20026;-70
2022/07/18 07:32:14;;;;;;;4.18;1.10;;;;;;;24.28;59.53;101505.72;5183075;28;20032;-71
2022/07/18 07:34:44;;;;;;;5.00;1.05;;;;;;;24.77;57.07;101500.94;5182639;28;20499;-71
2022/07/18 07:37:14;;;;;;;3.97;1.02;;;;;;;24.52;58.99;101506.50;5181289;28;20625;-71
2022/07/18 07:39:46;;;;;;;5.30;1.08;;;;;;;24.56;59.18;101504.44;5184835;28;20474;-71
2022/07/18 07:42:16;;;;;;;3.85;1.05;;;;;;;;;;5185210;28;20057;-71
2022/07/18 07:44:46;;;;;;;3.53;1.30;;;;;;;24.60;58.60;101492.53;5180473;28;20026;-70
2022/07/18 07:47:17;;;;;;;3.95;1.15;;;;;;;24.49;59.14;101495.16;5180906;28;20025;-71
2022/07/18 07:49:47;;;;;;;9.20;1.75;;;;;;;24.84;57.30;101486.09;5181900;28;20029;-70
2022/07/18 07:52:18;;;;;;;3.55;1.25;;;;;;;24.73;57.99;101493.28;5183403;28;20060;-70
2022/07/18 07:54:48;;;;;;;5.90;1.65;;;;;;;24.93;58.26;101496.91;5181145;28;20056;-70
2022/07/18 07:57:19;;;;;;;2.88;0.95;;;;;;;25.13;56.28;101492.63;5180649;28;20049;-70
2022/07/18 07:59:50;;;;;;;3.22;1.30;;;;;;;25.56;54.90;101496.16;5182539;28;20088;-70
2022/07/18 08:02:20;;;;;;;4.85;1.30;;;;;;;25.47;55.41;101496.94;5180503;28;20041;-71
2022/07/18 08:04:50;;;;;;;3.17;1.00;;;;;;;25.88;54.96;101497.03;5197947;28;20028;-71
2022/07/18 08:07:21;;;;;;;2.58;1.00;;;;;;;25.45;56.05;101493.56;5165751;28;20048;-71
2022/07/18 08:09:51;;;;;;;4.15;1.00;;;;;;;27.02;53.51;101485.13;5165936;28;20076;-70
2022/07/18 08:12:22;;;;;;;3.85;1.10;;;;;;;27.05;52.02;101492.88;5185684;28;20261;-71
2022/07/18 08:14:52;;;;;;;2.35;0.90;;;;;;;27.86;51.07;101478.22;5182650;28;20068;-71
2022/07/18 08:17:22;;;;;;;5.30;0.85;;;;;;;29.01;50.12;101476.91;5181491;28;20050;-71
2022/07/18 08:19:53;;;;;;;3.50;1.15;;;;;;;29.05;49.70;101467.53;5182222;28;20389;-71
2022/07/18 08:22:23;;;;;;;3.22;0.90;;;;;;;29.17;48.48;101467.19;5164261;28;20049;-71
2022/07/18 08:24:54;;;;;;;4.60;1.20;;;;;;;30.29;46.72;101461.97;5182561;28;20384;-71
2022/07/18 08:27:24;;;;;;;2.75;1.20;;;;;;;30.55;45.00;101458.25;5177618;28;20022;-71
2022/07/18 08:29:54;;;;;;;5.30;1.38;;;;;;;30.07;45.99;101462.53;5180489;28;20022;-71
2022/07/18 08:32:25;;;;;;;2.65;1.00;;;;;;;30.43;43.91;101458.69;5178719;28;20030;-70
2022/07/18 08:34:55;;;;;;;2.90;0.90;;;;;;;31.59;44.22;101464.03;5178701;28;20080;-71
2022/07/18 08:37:26;;;;;;;3.63;1.40;;;;;;;30.64;43.37;101460.03;5180793;28;20080;-71
2022/07/18 08:39:56;;;;;;;4.47;1.10;;;;;;;32.43;41.81;101447.31;5182246;28;20269;-71
2022/07/18 08:42:27;;;;;;;4.25;0.95;;;;;;;30.93;44.72;101452.38;5183151;28;20030;-71
2022/07/18 08:44:58;;;;;;;3.13;1.00;;;;;;;32.17;43.04;101452.09;5180959;28;20026;-71
2022/07/18 08:47:29;;;;;;;2.75;1.02;;;;;;;31.41;41.77;101453.41;5181658;28;20185;-71
2022/07/18 08:50:01;;;;;;;2.78;1.10;;;;;;;31.56;43.21;101462.50;5181617;28;20080;-71
2022/07/18 08:52:32;;;;;;;7.28;1.10;;;;;;;30.76;41.62;101466.00;5181933;28;20052;-72
2022/07/18 08:55:03;;;;;;;4.38;1.00;;;;;;;31.10;41.81;101457.69;5164219;28;20022;-71
2022/07/18 08:57:33;;;;;;;2.53;0.80;;;;;;;31.68;42.32;101457.69;5179980;28;20022;-71
2022/07/18 09:00:06;;;;;;;4.60;1.05;;;;;;;32.47;43.64;101461.31;5181100;28;20361;-71
2022/07/18 09:02:37;;;;;;;3.03;0.93;;;;;;;30.98;41.54;101466.22;5180004;28;20060;-72
2022/07/18 09:05:18;;;;;;;3.70;1.20;;;;;;;31.81;40.16;101452.59;5181649;28;20021;-72
2022/07/18 09:07:49;;;;;;;2.60;0.98;;;;;;;30.34;42.62;101462.34;5194699;28;20026;-71
2022/07/18 09:10:19;;;;;;;2.45;1.00;;;;;;;30.52;42.65;101457.72;5183724;28;20041;-72
2022/07/18 09:12:57;;;;;;;3.50;0.90;;;;;;;33.21;41.77;101449.03;5182708;28;20021;-71
2022/07/18 09:15:27;;;;;;;2.95;1.27;;;;;;;32.64;41.58;101447.56;5176313;28;20033;-71
2022/07/18 09:17:58;;;;;;;3.00;1.00;;;;;;;31.02;40.17;101449.53;5181140;28;20022;-71
2022/07/18 09:20:29;;;;;;;2.63;0.88;;;;;;;32.92;41.81;101452.38;5179541;28;20029;-71
2022/07/18 09:23:12;;;;;;;3.33;1.38;;;;;;;32.27;40.06;101450.06;5163464;28;20099;-71
2022/07/18 09:25:43;;;;;;;5.97;1.27;;;;;;;31.36;41.38;101444.09;5179799;28;20037;-71
2022/07/18 09:28:13;;;;;;;3.78;1.20;;;;;;;33.60;40.16;101438.91;5180790;28;21124;-71
2022/07/18 09:30:44;;;;;;;2.67;1.20;;;;;;;32.84;40.99;101448.88;5179747;28;20482;-71
2022/07/18 09:33:16;;;;;;;3.65;1.48;;;;;;;31.29;41.54;101452.00;5180875;28;20201;-71
2022/07/18 09:35:53;;;;;;;4.30;1.70;;;;;;;32.73;39.05;101443.81;5180804;28;20038;-71
2022/07/18 09:38:30;;;;;;;4.13;1.70;;;;;;;32.09;39.25;101443.09;5178790;28;20094;-71
2022/07/18 09:41:01;;;;;;;3.40;1.30;;;;;;;33.14;39.09;101442.63;5180516;28;20438;-71
2022/07/18 09:43:37;;;;;;;3.78;1.67;;;;;;;33.51;40.35;101440.00;5196172;28;20029;-71
2022/07/18 09:46:08;;;;;;;3.97;1.80;;;;;;;31.38;39.51;101442.88;5161841;28;20427;-72
2022/07/18 09:48:38;;;;;;;4.55;2.10;;;;;;;30.80;41.58;101451.97;5178970;28;20037;-71
2022/07/18 09:51:09;;;;;;;4.70;2.58;;;;;;;32.82;37.71;101437.38;5180718;28;20072;-71
2022/07/18 09:53:43;;;;;;;4.00;1.98;;;;;;;33.35;38.35;101445.56;5162920;28;20030;-71
2022/07/18 09:56:23;;;;;;;4.30;2.13;;;;;;;33.45;38.12;101440.72;5177436;28;20041;-71
2022/07/18 09:58:56;;;;;;;5.55;2.58;;;;;;;32.44;37.77;101443.56;5179001;28;20030;-71
2022/07/18 10:01:27;;;;;;;2.95;1.70;;;;;;;32.31;37.99;101445.97;5191643;28;20085;-71
2022/07/18 10:04:00;;;;;;;2.65;2.05;;;;;;;31.83;38.12;101435.19;5163960;28;20364;-71
2022/07/18 10:06:31;;;;;;;5.00;2.40;;;;;;;30.42;39.14;101435.41;5179899;28;20395;-71
2022/07/18 10:09:01;;;;;;;5.15;1.98;;;;;;;31.85;39.31;101430.44;5178741;28;20308;-71
2022/07/18 10:11:32;;;;;;;3.83;2.00;;;;;;;31.58;39.61;101421.78;5184436;28;20029;-71
2022/07/18 10:14:02;;;;;;;2.55;1.75;;;;;;;32.05;40.00;101418.25;5178421;28;20545;-71
2022/07/18 10:16:33;;;;;;;4.10;1.70;;;;;;;31.94;40.44;101413.19;5178343;28;20112;-71
2022/07/18 10:19:03;;;;;;;3.67;1.95;;;;;;;31.30;40.54;101415.00;5162396;28;20030;-71
2022/07/18 10:21:34;;;;;;;4.07;1.80;;;;;;;31.51;43.20;101413.50;5180305;28;20109;-71
2022/07/18 10:24:04;;;;;;;4.25;1.63;;;;;;;30.75;41.44;101405.72;5178803;28;20033;-71
2022/07/18 10:26:35;;;;;;;3.95;1.70;;;;;;;29.67;42.71;101401.00;5166500;28;20092;-69
2022/07/18 10:29:05;;;;;;;5.30;1.88;;;;;;;30.49;44.79;101404.06;5179930;28;20018;-71
2022/07/18 10:31:42;;;;;;;4.93;1.50;;;;;;;30.38;44.19;101402.50;5179826;28;20060;-71
2022/07/18 10:34:12;;;;;;;3.10;1.70;;;;;;;30.59;43.65;101388.63;5176935;28;20032;-70
2022/07/18 10:36:49;;;;;;;3.38;1.75;;;;;;;30.65;43.27;101388.84;5179128;28;20025;-70
2022/07/18 10:39:31;;;;;;;5.10;1.70;;;;;;;30.42;43.26;101403.03;5177709;28;20499;-71
2022/07/18 10:42:02;;;;;;;4.07;2.00;;;;;;;30.26;44.52;101392.16;5179872;28;20029;-70
2022/07/18 10:44:39;;;;;;;3.20;1.95;;;;;;;30.26;43.74;101397.56;5179965;28;20032;-71
2022/07/18 10:47:17;;;;;;;2.72;1.75;;;;;;;29.99;44.42;101389.59;5162651;28;20168;-71
2022/07/18 10:49:48;;;;;;;4.22;2.10;;;;;;;30.32;44.07;101392.34;5179611;28;20060;-71
2022/07/18 10:52:44;;;;;;;2.75;1.85;;;;;;;30.36;42.89;101392.84;5178890;28;20119;-71
2022/07/18 10:55:23;;;;;;;3.78;1.88;;;;;;;29.77;43.91;101390.13;5191981;28;20030;-71
2022/07/18 10:57:54;;;;;;;2.85;1.80;;;;;;;29.98;43.77;101396.00;5173655;28;20034;-71
2022/07/18 11:00:34;;;;;;;5.20;2.00;;;;;;;29.61;43.28;101390.00;5178236;28;20029;-71
2022/07/18 11:03:08;;;;;;;4.43;1.90;;;;;;;29.63;44.51;101393.38;5178581;28;20037;-71
2022/07/18 11:05:43;;;;;;;3.92;1.50;;;;;;;29.57;43.35;101384.06;5179722;28;20048;-71
2022/07/18 11:08:13;;;;;;;3.90;1.50;;;;;;;29.56;43.41;101382.38;5179448;28;20492;-70
2022/07/18 11:13:27;;;;;;;3.13;1.60;;;;;;;29.45;44.97;101374.50;5180809;28;20338;-70
2022/07/18 11:16:05;;;;;;;3.28;1.50;;;;;;;29.69;44.26;101376.56;5178980;28;20034;-71
2022/07/18 11:18:42;;;;;;;3.63;1.70;;;;;;;29.69;43.73;101371.16;5177664;28;20107;-72
2022/07/18 11:21:21;;;;;;;4.93;1.80;;;;;;;29.73;45.22;101361.78;5177447;28;20056;-70
2022/07/18 11:23:52;;;;;;;3.33;1.67;;;;;;;29.58;45.98;101364.19;5179304;28;20029;-71
2022/07/18 11:26:23;;;;;;;3.45;1.75;;;;;;;29.59;44.86;101359.66;5178477;28;20252;-70
2022/07/18 11:29:11;;;;;;;3.63;1.60;;;;;;;29.69;44.67;101355.00;5177283;28;20029;-71
2022/07/18 11:31:58;;;;;;;4.03;1.63;;;;;;;29.85;44.25;101349.72;5176446;28;20062;-70
2022/07/18 11:34:28;;;;;;;3.15;1.58;;;;;;;29.65;43.24;101342.84;5177729;28;20026;-71
2022/07/18 11:36:59;;;;;;;3.67;1.70;;;;;;;29.63;43.84;101339.47;5177663;28;20029;-70
2022/07/18 11:39:31;;;;;;;3.92;1.75;;;;;;;29.63;44.56;101340.31;5177612;28;21191;-70
2022/07/18 11:42:03;;;;;;;4.60;1.85;;;;;;;29.71;44.10;101331.44;5179741;28;20202;-71
2022/07/18 11:44:34;;;;;;;3.67;1.70;;;;;;;29.42;43.81;101330.84;5177434;28;20111;-71
2022/07/18 11:47:13;;;;;;;4.28;1.50;;;;;;;29.29;44.14;101325.00;5177023;28;20076;-71
2022/07/18 11:49:54;;;;;;;4.18;1.73;;;;;;;29.47;44.35;101332.13;5177186;28;20569;-70